createdAt,value
2023-03-06T00:01:30.941Z,4.72
2023-03-06T00:04:16.521Z,4.67
2023-03-06T00:07:02.344Z,4.74
2023-03-06T00:09:48.302Z,4.67
2023-03-06T00:12:34.297Z,4.71
2023-03-06T00:15:20.890Z,4.68
2023-03-06T00:18:07.528Z,4.65
2023-03-06T00:20:53.590Z,4.59
2023-03-06T00:23:41.489Z,4.58
2023-03-06T00:26:36.763Z,4.51
2023-03-06T00:29:23.869Z,4.48
2023-03-06T00:32:10.078Z,4.46
2023-03-06T00:34:56.311Z,4.40
2023-03-06T00:37:42.902Z,4.27
2023-03-06T00:40:29.033Z,4.26
2023-03-06T00:43:14.775Z,4.23
2023-03-06T00:46:00.929Z,4.16
2023-03-06T00:48:47.661Z,4.19
2023-03-06T00:51:38.480Z,4.19
2023-03-06T00:54:24.300Z,4.18
2023-03-06T00:57:10.078Z,4.16
2023-03-06T00:59:55.891Z,4.15
2023-03-06T01:02:41.744Z,4.12
2023-03-06T01:05:27.670Z,4.08
2023-03-06T01:08:13.435Z,4.05
2023-03-06T01:10:59.484Z,4.03
2023-03-06T01:13:45.271Z,4.01
2023-03-06T01:16:32.415Z,3.99
2023-03-06T01:19:18.474Z,3.95
2023-03-06T01:22:04.706Z,3.90
2023-03-06T01:24:50.662Z,3.82
2023-03-06T01:27:36.627Z,3.75
2023-03-06T01:30:22.559Z,3.68
2023-03-06T01:33:08.157Z,3.64
2023-03-06T01:35:53.902Z,3.63
2023-03-06T01:38:41.868Z,3.60
2023-03-06T01:41:28.004Z,3.52
2023-03-06T01:44:14.332Z,3.50
2023-03-06T01:47:02.354Z,3.48
2023-03-06T01:49:48.473Z,3.44
2023-03-06T01:52:38.799Z,3.42
2023-03-06T01:55:33.429Z,3.38
2023-03-06T01:58:19.802Z,3.33
2023-03-06T02:01:06.499Z,3.34
2023-03-06T02:03:52.391Z,3.28
2023-03-06T02:06:43.194Z,3.23
2023-03-06T02:09:31.025Z,3.15
2023-03-06T02:12:18.877Z,3.06
2023-03-06T02:15:05.301Z,2.96
2023-03-06T02:17:51.938Z,2.86
2023-03-06T02:20:43.915Z,2.81
2023-03-06T02:23:41.092Z,2.82
2023-03-06T02:26:28.377Z,2.82
2023-03-06T02:29:18.145Z,2.82
2023-03-06T02:32:05.026Z,2.81
2023-03-06T02:34:54.367Z,2.82
2023-03-06T02:37:40.528Z,2.84
2023-03-06T02:40:26.429Z,2.81
2023-03-06T02:43:13.603Z,2.77
2023-03-06T02:45:59.533Z,2.77
2023-03-06T02:48:47.500Z,2.74
2023-03-06T02:51:34.244Z,2.73
2023-03-06T02:54:20.552Z,2.73
2023-03-06T02:57:06.354Z,2.71
2023-03-06T02:59:53.151Z,2.70
2023-03-06T03:02:39.409Z,2.63
2023-03-06T03:05:25.300Z,2.57
2023-03-06T03:08:18.335Z,2.52
2023-03-06T03:11:04.974Z,2.48
2023-03-06T03:13:57.836Z,2.36
2023-03-06T03:16:46.658Z,2.36
2023-03-06T03:19:32.624Z,2.31
2023-03-06T03:22:19.197Z,2.23
2023-03-06T03:25:05.447Z,2.17
2023-03-06T03:27:51.581Z,2.11
2023-03-06T03:30:40.047Z,2.11
2023-03-06T03:33:28.527Z,2.13
2023-03-06T03:36:14.700Z,2.14
2023-03-06T03:39:05.880Z,2.16
2023-03-06T03:41:52.062Z,2.22
2023-03-06T03:44:39.879Z,2.23
2023-03-06T03:47:26.180Z,2.24
2023-03-06T03:50:14.384Z,2.24
2023-03-06T03:53:01.041Z,2.24
2023-03-06T03:55:48.811Z,2.28
2023-03-06T03:58:37.408Z,2.25
2023-03-06T04:01:27.803Z,2.24
2023-03-06T04:04:14.173Z,2.17
2023-03-06T04:07:02.254Z,2.17
2023-03-06T04:09:48.162Z,2.13
2023-03-06T04:12:34.984Z,2.09
2023-03-06T04:15:21.109Z,2.06
2023-03-06T04:18:08.117Z,2.02
2023-03-06T04:20:55.002Z,1.97
2023-03-06T04:23:40.899Z,1.91
2023-03-06T04:26:27.371Z,1.88
2023-03-06T04:29:13.141Z,1.86
2023-03-06T04:31:59.211Z,1.77
2023-03-06T04:34:45.474Z,1.68
2023-03-06T04:37:31.616Z,1.62
2023-03-06T04:40:21.915Z,1.59
2023-03-06T04:43:07.750Z,1.56
2023-03-06T04:45:53.345Z,1.55
2023-03-06T04:48:39.129Z,1.54
2023-03-06T04:51:24.814Z,1.57
2023-03-06T04:54:10.562Z,1.57
2023-03-06T04:56:56.286Z,1.51
2023-03-06T04:59:42.933Z,1.49
2023-03-06T05:02:28.706Z,1.46
2023-03-06T05:05:15.008Z,1.45
2023-03-06T05:08:00.690Z,1.45
2023-03-06T05:10:46.667Z,1.42
2023-03-06T05:13:33.037Z,1.49
2023-03-06T05:16:19.109Z,1.52
2023-03-06T05:19:04.891Z,1.53
2023-03-06T05:21:50.492Z,1.53
2023-03-06T05:24:37.151Z,1.55
2023-03-06T05:27:22.953Z,1.54
2023-03-06T05:30:12.947Z,1.51
2023-03-06T05:32:59.742Z,1.46
2023-03-06T05:35:47.636Z,1.45
2023-03-06T05:38:33.533Z,1.44
2023-03-06T05:41:19.656Z,1.39
2023-03-06T05:44:05.494Z,1.40
2023-03-06T05:46:51.120Z,1.39
2023-03-06T05:49:37.282Z,1.41
2023-03-06T05:52:23.213Z,1.42
2023-03-06T05:55:11.683Z,1.44
2023-03-06T05:57:58.546Z,1.44
2023-03-06T06:00:44.570Z,1.50
2023-03-06T06:03:30.342Z,1.55
2023-03-06T06:06:16.400Z,1.52
2023-03-06T06:09:02.237Z,1.58
2023-03-06T06:11:51.525Z,1.58
2023-03-06T06:14:38.684Z,1.55
2023-03-06T06:17:24.522Z,1.62
2023-03-06T06:20:11.423Z,1.60
2023-03-06T06:22:57.433Z,1.58
2023-03-06T06:25:43.496Z,1.56
2023-03-06T06:28:33.771Z,1.61
2023-03-06T06:31:19.529Z,1.70
2023-03-06T06:34:10.978Z,1.80
2023-03-06T06:36:56.832Z,1.85
2023-03-06T06:39:42.557Z,1.91
2023-03-06T06:42:36.911Z,2.03
2023-03-06T06:45:24.215Z,2.11
2023-03-06T06:48:10.685Z,2.17
2023-03-06T06:50:58.119Z,2.28
2023-03-06T06:53:44.645Z,2.36
2023-03-06T06:56:30.743Z,2.45
2023-03-06T06:59:17.608Z,2.52
2023-03-06T07:02:03.935Z,2.56
2023-03-06T07:05:03.111Z,2.63
2023-03-06T07:07:51.397Z,2.74
2023-03-06T07:10:39.537Z,2.81
2023-03-06T07:13:25.265Z,2.88
2023-03-06T07:16:11.181Z,2.91
2023-03-06T07:18:57.212Z,2.98
2023-03-06T07:21:43.003Z,3.04
2023-03-06T07:24:29.053Z,3.12
2023-03-06T07:27:15.295Z,3.19
2023-03-06T07:30:01.339Z,3.24
2023-03-06T07:32:46.886Z,3.32
2023-03-06T07:35:32.754Z,3.34
2023-03-06T07:38:18.581Z,3.45
2023-03-06T07:41:08.366Z,3.51
2023-03-06T07:43:54.434Z,3.55
2023-03-06T07:46:41.269Z,3.66
2023-03-06T07:49:27.327Z,3.72
2023-03-06T07:52:13.878Z,3.80
2023-03-06T07:55:00.166Z,3.87
2023-03-06T07:57:45.912Z,3.91
2023-03-06T08:00:31.640Z,3.97
2023-03-06T08:03:17.327Z,4.05
2023-03-06T08:06:09.353Z,4.14
2023-03-06T08:08:55.833Z,4.26
2023-03-06T08:11:41.854Z,4.40
2023-03-06T08:14:27.661Z,4.54
2023-03-06T08:17:13.505Z,4.60
2023-03-06T08:19:59.514Z,4.76
2023-03-06T08:22:45.764Z,4.87
2023-03-06T08:25:31.841Z,4.98
2023-03-06T08:28:17.538Z,5.08
2023-03-06T08:31:31.508Z,5.20
2023-03-06T08:34:20.433Z,5.38
2023-03-06T08:37:06.335Z,5.49
2023-03-06T08:39:51.977Z,5.62
2023-03-06T08:42:37.681Z,5.73
2023-03-06T08:45:23.585Z,5.91
2023-03-06T08:48:09.309Z,6.08
2023-03-06T08:50:55.284Z,6.21
2023-03-06T08:53:43.662Z,6.40
2023-03-06T08:56:32.986Z,6.54
2023-03-06T08:59:18.961Z,6.68
2023-03-06T09:02:05.714Z,6.83
2023-03-06T09:04:51.610Z,7.02
2023-03-06T09:07:37.572Z,7.18
2023-03-06T09:10:25.478Z,7.42
2023-03-06T09:13:11.211Z,7.62
2023-03-06T09:15:57.065Z,7.84
2023-03-06T09:18:42.894Z,8.06
2023-03-06T09:21:28.742Z,8.30
2023-03-06T09:24:14.516Z,8.51
2023-03-06T09:27:00.523Z,8.71
2023-03-06T09:29:46.250Z,8.94
2023-03-06T09:32:31.991Z,9.10
2023-03-06T09:35:18.865Z,9.24
2023-03-06T09:38:04.484Z,9.42
2023-03-06T09:41:16.574Z,9.61
2023-03-06T09:44:05.938Z,9.79
2023-03-06T09:47:26.172Z,10.03
2023-03-06T09:50:47.776Z,10.26
2023-03-06T09:53:48.810Z,10.51
2023-03-06T09:56:35.985Z,10.70
2023-03-06T09:59:23.953Z,10.91
2023-03-06T10:02:25.970Z,11.19
2023-03-06T10:05:24.774Z,11.43
2023-03-06T10:08:25.918Z,11.59
2023-03-06T10:11:13.698Z,11.73
2023-03-06T10:14:22.824Z,11.90
2023-03-06T10:17:16.353Z,12.07
2023-03-06T10:20:16.051Z,12.20
2023-03-06T10:23:45.375Z,12.38
2023-03-06T10:26:40.632Z,12.57
2023-03-06T10:30:01.522Z,12.75
2023-03-06T10:32:56.226Z,12.84
2023-03-06T10:35:45.901Z,12.89
2023-03-06T10:38:31.563Z,12.98
2023-03-06T10:41:35.954Z,13.05
2023-03-06T10:44:23.721Z,13.18
2023-03-06T10:47:29.070Z,13.38
2023-03-06T10:50:28.441Z,13.58
2023-03-06T10:53:26.539Z,13.67
2023-03-06T10:56:12.376Z,13.65
2023-03-06T10:59:11.749Z,13.64
2023-03-06T11:01:59.367Z,13.72
2023-03-06T11:04:47.896Z,13.82
2023-03-06T11:07:37.324Z,13.88
2023-03-06T11:10:24.561Z,13.76
2023-03-06T11:13:32.304Z,13.81
2023-03-06T11:16:25.999Z,14.00
2023-03-06T11:19:19.911Z,14.15
2023-03-06T11:22:17.229Z,14.30
2023-03-06T11:25:03.259Z,14.37
2023-03-06T11:28:22.848Z,14.46
2023-03-06T11:31:14.076Z,14.61
2023-03-06T11:34:12.178Z,14.72
2023-03-06T11:37:05.956Z,14.87
2023-03-06T11:40:15.805Z,14.92
2023-03-06T11:43:23.437Z,15.48
2023-03-06T11:46:21.580Z,16.21
2023-03-06T11:49:17.449Z,16.93
2023-03-06T11:52:07.459Z,17.40
2023-03-06T11:54:56.553Z,17.57
2023-03-06T11:58:04.555Z,18.10
2023-03-06T12:01:15.086Z,18.65
2023-03-06T12:04:07.298Z,18.86
2023-03-06T12:07:02.246Z,18.87
2023-03-06T12:10:08.442Z,18.82
2023-03-06T12:12:54.092Z,18.92
2023-03-06T12:15:58.663Z,18.94
2023-03-06T12:19:23.901Z,18.69
2023-03-06T12:22:22.161Z,18.45
2023-03-06T12:25:27.842Z,18.14
2023-03-06T12:28:38.494Z,17.99
2023-03-06T12:31:41.440Z,18.00
2023-03-06T12:34:37.131Z,18.11
2023-03-06T12:37:50.187Z,18.38
2023-03-06T12:41:00.702Z,18.59
2023-03-06T12:44:25.423Z,18.83
2023-03-06T12:47:12.274Z,18.98
2023-03-06T12:50:09.747Z,18.76
2023-03-06T12:52:59.424Z,18.30
2023-03-06T12:55:47.654Z,17.76
2023-03-06T13:02:17.507Z,16.36
2023-03-06T13:05:12.811Z,15.83
2023-03-06T13:08:28.261Z,15.32
2023-03-06T13:11:41.634Z,14.91
2023-03-06T13:14:54.089Z,14.58
2023-03-06T13:17:41.065Z,14.34
2023-03-06T13:20:54.097Z,14.13
2023-03-06T13:23:51.702Z,14.08
2023-03-06T13:26:37.401Z,14.31
2023-03-06T13:29:38.477Z,14.73
2023-03-06T13:32:30.245Z,15.25
2023-03-06T13:35:34.226Z,15.68
2023-03-06T13:38:56.994Z,16.18
2023-03-06T13:42:04.233Z,16.32
2023-03-06T13:44:51.235Z,16.05
2023-03-06T13:48:19.520Z,15.94
2023-03-06T13:51:14.360Z,15.67
2023-03-06T13:54:37.775Z,15.38
2023-03-06T13:57:48.121Z,15.02
2023-03-06T14:00:49.462Z,14.62
2023-03-06T14:03:52.073Z,14.31
2023-03-06T14:06:41.096Z,14.05
2023-03-06T14:09:30.678Z,13.80
2023-03-06T14:12:24.261Z,13.59
2023-03-06T14:15:51.065Z,13.39
2023-03-06T14:18:42.109Z,13.27
2023-03-06T14:21:31.348Z,13.24
2023-03-06T14:24:19.510Z,13.23
2023-03-06T14:27:05.482Z,13.23
2023-03-06T14:29:51.485Z,13.17
2023-03-06T14:32:38.523Z,13.15
2023-03-06T14:35:27.694Z,13.08
2023-03-06T14:38:14.671Z,13.02
2023-03-06T14:41:01.277Z,12.90
2023-03-06T14:43:47.020Z,12.79
2023-03-06T14:46:32.640Z,12.74
2023-03-06T14:49:20.159Z,12.64
2023-03-06T14:52:18.354Z,12.54
2023-03-06T14:55:12.147Z,12.43
2023-03-06T14:58:10.420Z,12.30
2023-03-06T15:00:58.769Z,12.25
2023-03-06T15:03:50.241Z,12.20
2023-03-06T15:06:41.455Z,12.15
2023-03-06T15:09:31.959Z,12.10
2023-03-06T15:12:20.967Z,12.05
2023-03-06T15:15:06.922Z,12.01
2023-03-06T15:17:53.594Z,11.96
2023-03-06T15:20:41.578Z,11.99
2023-03-06T15:23:36.193Z,11.95
2023-03-06T15:26:33.089Z,11.98
2023-03-06T15:29:23.418Z,11.99
2023-03-06T15:32:15.075Z,12.00
2023-03-06T15:35:29.099Z,12.04
2023-03-06T15:38:45.944Z,12.06
2023-03-06T15:41:37.190Z,12.07
2023-03-06T15:44:24.162Z,12.10
2023-03-06T15:47:11.629Z,12.11
2023-03-06T15:49:58.715Z,12.10
2023-03-06T15:52:45.855Z,12.05
2023-03-06T15:55:32.546Z,12.03
2023-03-06T15:58:24.964Z,11.92
2023-03-06T16:01:16.116Z,11.83
2023-03-06T16:04:02.313Z,11.76
2023-03-06T16:06:48.229Z,11.68
2023-03-06T16:09:34.030Z,11.61
2023-03-06T16:12:21.838Z,11.55
2023-03-06T16:15:20.088Z,11.48
2023-03-06T16:18:06.607Z,11.39
2023-03-06T16:20:52.809Z,11.30
2023-03-06T16:23:39.297Z,11.15
2023-03-06T16:26:33.590Z,11.02
2023-03-06T16:29:23.014Z,10.92
2023-03-06T16:32:10.798Z,10.84
2023-03-06T16:34:56.717Z,10.77
2023-03-06T16:37:42.995Z,10.72
2023-03-06T16:40:38.876Z,10.65
2023-03-06T16:43:24.579Z,10.62
2023-03-06T16:46:20.111Z,10.55
2023-03-06T16:49:06.278Z,10.50
2023-03-06T16:51:52.996Z,10.46
2023-03-06T16:54:39.110Z,10.42
2023-03-06T16:57:25.174Z,10.37
2023-03-06T17:00:13.665Z,10.30
2023-03-06T17:03:00.940Z,10.30
2023-03-06T17:05:46.677Z,10.26
2023-03-06T17:08:32.494Z,10.23
2023-03-06T17:11:22.135Z,10.21
2023-03-06T17:14:08.023Z,10.13
2023-03-06T17:16:54.157Z,10.16
2023-03-06T17:19:39.864Z,10.12
2023-03-06T17:22:27.411Z,10.11
2023-03-06T17:25:14.210Z,10.06
2023-03-06T17:28:06.276Z,10.06
2023-03-06T17:30:52.732Z,10.04
2023-03-06T17:33:38.990Z,10.04
2023-03-06T17:36:24.961Z,10.06
2023-03-06T17:39:11.770Z,10.05
2023-03-06T17:41:57.823Z,10.07
2023-03-06T17:44:43.755Z,10.06
2023-03-06T17:47:29.789Z,10.05
2023-03-06T17:50:15.796Z,10.07
2023-03-06T17:53:01.746Z,10.07
2023-03-06T17:55:49.295Z,10.05
2023-03-06T17:58:35.844Z,10.02
2023-03-06T18:01:23.728Z,10.01
2023-03-06T18:04:10.697Z,9.98
2023-03-06T18:06:58.480Z,9.96
2023-03-06T18:09:44.591Z,9.92
2023-03-06T18:12:30.341Z,9.92
2023-03-06T18:15:16.302Z,9.88
2023-03-06T18:18:02.402Z,9.86
2023-03-06T18:20:48.398Z,9.85
2023-03-06T18:23:36.155Z,9.82
2023-03-06T18:26:26.722Z,9.80
2023-03-06T18:29:12.893Z,9.78
2023-03-06T18:31:59.430Z,9.77
2023-03-06T18:34:45.557Z,9.68
2023-03-06T18:37:31.679Z,9.66
2023-03-06T18:40:17.700Z,9.58
2023-03-06T18:43:03.708Z,9.57
2023-03-06T18:45:57.109Z,9.54
2023-03-06T18:48:42.848Z,9.47
2023-03-06T18:51:28.888Z,9.47
2023-03-06T18:54:14.498Z,9.45
2023-03-06T18:57:00.460Z,9.42
2023-03-06T18:59:50.111Z,9.37
2023-03-06T19:02:36.328Z,9.32
2023-03-06T19:05:22.262Z,9.34
2023-03-06T19:08:09.228Z,9.36
2023-03-06T19:10:56.486Z,9.39
2023-03-06T19:13:42.565Z,9.42
2023-03-06T19:16:31.372Z,9.42
2023-03-06T19:19:17.364Z,9.56
2023-03-06T19:22:03.114Z,9.61
2023-03-06T19:24:50.174Z,9.64
2023-03-06T19:27:39.271Z,9.67
2023-03-06T19:30:26.015Z,9.63
2023-03-06T19:33:11.884Z,9.58
2023-03-06T19:36:02.329Z,9.46
2023-03-06T19:38:52.868Z,9.37
2023-03-06T19:41:39.260Z,9.30
2023-03-06T19:44:25.396Z,9.18
2023-03-06T19:47:11.451Z,9.19
2023-03-06T19:49:57.536Z,9.12
2023-03-06T19:52:43.629Z,9.10
2023-03-06T19:55:29.827Z,9.09
2023-03-06T19:58:16.109Z,9.05
2023-03-06T20:01:11.386Z,9.01
2023-03-06T20:03:59.096Z,8.97
2023-03-06T20:06:46.771Z,8.94
2023-03-06T20:09:32.980Z,8.95
2023-03-06T20:12:18.854Z,8.95
2023-03-06T20:15:05.021Z,8.92
2023-03-06T20:17:51.105Z,8.87
2023-03-06T20:20:39.241Z,8.86
2023-03-06T20:23:25.296Z,8.79
2023-03-06T20:26:13.768Z,8.80
2023-03-06T20:28:59.838Z,8.78
2023-03-06T20:31:46.032Z,8.74
2023-03-06T20:34:32.882Z,8.73
2023-03-06T20:37:18.890Z,8.72
2023-03-06T20:40:05.695Z,8.70
2023-03-06T20:42:51.649Z,8.66
2023-03-06T20:45:37.439Z,8.63
2023-03-06T20:48:23.412Z,8.57
2023-03-06T20:51:16.873Z,8.57
2023-03-06T20:54:03.359Z,8.59
2023-03-06T20:56:50.350Z,8.59
2023-03-06T20:59:36.627Z,8.58
2023-03-06T21:02:22.806Z,8.62
2023-03-06T21:05:09.088Z,8.58
2023-03-06T21:07:58.107Z,8.61
2023-03-06T21:10:47.634Z,8.59
2023-03-06T21:13:33.761Z,8.62
2023-03-06T21:16:21.138Z,8.64
2023-03-06T21:19:07.146Z,8.65
2023-03-06T21:21:53.599Z,8.63
2023-03-06T21:24:39.829Z,8.61
2023-03-06T21:27:25.920Z,8.69
2023-03-06T21:30:12.227Z,8.71
2023-03-06T21:32:58.316Z,8.73
2023-03-06T21:35:45.149Z,8.75
2023-03-06T21:38:31.526Z,8.77
2023-03-06T21:41:28.689Z,8.76
2023-03-06T21:44:14.545Z,8.74
2023-03-06T21:47:01.317Z,8.82
2023-03-06T21:49:49.179Z,8.82
2023-03-06T21:52:36.905Z,8.84
2023-03-06T21:55:23.056Z,8.88
2023-03-06T21:58:10.198Z,8.88
2023-03-06T22:00:56.819Z,9.00
2023-03-06T22:03:42.493Z,9.05
2023-03-06T22:06:29.999Z,9.09
2023-03-06T22:09:19.033Z,9.08
2023-03-06T22:12:06.242Z,9.05
2023-03-06T22:14:52.074Z,9.03
2023-03-06T22:17:39.758Z,9.08
2023-03-06T22:20:25.697Z,9.14
2023-03-06T22:23:12.606Z,9.18
2023-03-06T22:26:02.674Z,9.21
2023-03-06T22:28:48.520Z,9.27
2023-03-06T22:31:34.377Z,9.33
2023-03-06T22:34:20.522Z,9.36
2023-03-06T22:37:06.204Z,9.40
2023-03-06T22:39:52.057Z,9.42
2023-03-06T22:42:37.788Z,9.39
2023-03-06T22:45:24.704Z,9.37
2023-03-06T22:48:11.286Z,9.32
2023-03-06T22:51:02.670Z,9.33
2023-03-06T22:53:48.908Z,9.25
2023-03-06T22:56:35.406Z,9.21
2023-03-06T22:59:21.447Z,9.14
2023-03-06T23:02:08.166Z,9.08
2023-03-06T23:04:54.087Z,9.01
2023-03-06T23:07:39.862Z,9.01
2023-03-06T23:10:25.920Z,8.96
2023-03-06T23:13:30.412Z,8.94
2023-03-06T23:16:35.510Z,8.90
2023-03-06T23:19:40.791Z,8.90
2023-03-06T23:22:45.666Z,8.88
2023-03-06T23:25:50.806Z,8.87
2023-03-06T23:28:36.680Z,8.80
2023-03-06T23:31:28.695Z,8.75
2023-03-06T23:34:14.407Z,8.73
2023-03-06T23:37:00.065Z,8.67
2023-03-06T23:39:46.253Z,8.63
2023-03-06T23:42:33.259Z,8.50
2023-03-06T23:45:18.900Z,8.54
2023-03-06T23:48:07.390Z,8.47
2023-03-06T23:50:53.411Z,8.51
2023-03-06T23:53:39.742Z,8.46
2023-03-06T23:56:26.933Z,8.51
2023-03-06T23:59:12.998Z,8.48
